Time;durP1;ratioP1;P1;durP2;ratioP2;P2;SDS_P1;SDS_P2;PMS_P1;PMS_P2;Temp;Humidity;BMP_temperature;BMP_pressure;BME280_temperature;BME280_humidity;BME280_pressure;Samples;Min_cycle;Max_cycle;Signal;HPM_P1;HPM_P2
2022/09/12 00:01:50;;;;;;;;;;;;;;;17.13;63.54;98610.06;5074277;28;20470;-51
2022/09/12 00:04:16;;;;;;;;;;;;;;;17.50;62.83;98601.50;5056316;28;20003;-50
2022/09/12 00:06:41;;;;;;;;;;;;;;;17.77;62.17;98605.00;5056159;28;19916;-51
2022/09/12 00:09:09;;;;;;;;;;;;;;;18.02;61.59;98605.56;5056285;28;19959;-51
2022/09/12 00:11:42;;;;;;;;;;;;;;;18.28;60.81;98603.94;5074122;28;19921;-51
2022/09/12 00:14:09;;;;;;;;;;;;;;;18.37;59.94;98605.06;5074126;28;19916;-51
2022/09/12 00:16:35;;;;;;;;;;;;;;;18.49;59.64;98603.06;5074023;28;19966;-51
2022/09/12 00:19:01;;;;;;;;;;;;;;;18.49;59.25;98604.91;5073852;28;19916;-51
2022/09/12 00:21:27;;;;;;;;;;;;;;;18.13;59.25;98607.28;5073356;28;19917;-50
2022/09/12 00:23:55;;;;;;;;;;;;;;;18.03;59.71;98602.66;5073569;28;19917;-51
2022/09/12 00:26:21;;;;;;;;;;;;;;;18.07;59.52;98603.75;5073632;28;19921;-51
2022/09/12 00:28:47;;;;;;;;;;;;;;;18.07;59.62;98601.09;5073789;28;19951;-51
2022/09/12 00:31:14;;;;;;;;;;;;;;;18.28;59.44;98598.63;5055767;28;19924;-51
2022/09/12 00:33:39;;;;;;;;;;;;;;;18.34;58.62;98594.97;5073707;28;19916;-51
2022/09/12 00:36:06;;;;;;;;;;;;;;;18.30;58.59;98601.84;5073629;28;19928;-50
2022/09/12 00:38:32;;;;;;;;;;;;;;;18.02;58.67;98601.03;5073540;28;19962;-51
2022/09/12 00:40:58;;;;;;;;;;;;;;;17.63;59.04;98595.84;5055597;28;19917;-50
2022/09/12 00:43:29;;;;;;;;;;;;;;;17.27;60.86;98592.75;5055495;28;19956;-51
2022/09/12 00:46:00;;;;;;;;;;;;;;;16.96;61.18;98595.00;5055511;28;19920;-51
2022/09/12 00:48:30;;;;;;;;;;;;;;;16.72;62.82;98590.88;5055492;28;19916;-50
2022/09/12 00:50:56;;;;;;;;;;;;;;;16.42;63.78;98597.34;5055374;28;19930;-51
2022/09/12 00:53:21;;;;;;;;;;;;;;;16.18;64.19;98602.78;5073262;28;20003;-51
2022/09/12 00:55:49;;;;;;;;;;;;;;;16.22;63.98;98595.16;5073213;28;19962;-51
2022/09/12 00:58:26;;;;;;;;;;;;;;;16.30;64.02;98588.69;5073088;28;19946;-51
2022/09/12 01:00:52;;;;;;;;;;;;;;;16.37;64.19;98592.75;5055107;28;20369;-51
2022/09/12 01:03:19;;;;;;;;;;;;;;;16.22;64.83;98592.50;5073404;28;19967;-51
2022/09/12 01:06:05;;;;;;;;;;;;;;;16.09;65.34;98590.94;5055090;28;19943;-51
2022/09/12 01:08:31;;;;;;;;;;;;;;;16.01;66.38;98582.59;5072474;28;19923;-51
2022/09/12 01:10:57;;;;;;;;;;;;;;;15.89;66.81;98578.16;5072952;28;20302;-51
2022/09/12 01:13:23;;;;;;;;;;;;;;;15.74;66.94;98575.25;5072891;28;19916;-51
2022/09/12 01:15:48;;;;;;;;;;;;;;;15.72;66.86;98580.78;5073014;28;19924;-51
2022/09/12 01:18:31;;;;;;;;;;;;;;;15.78;66.79;98581.69;5072769;28;20542;-51
2022/09/12 01:21:02;;;;;;;;;;;;;;;15.94;66.28;98582.75;5072825;28;20374;-51
2022/09/12 01:23:34;;;;;;;;;;;;;;;16.07;66.06;98582.44;5054792;28;19961;-51
2022/09/12 01:26:06;;;;;;;;;;;;;;;16.25;65.56;98575.34;5072498;28;19927;-51
2022/09/12 01:28:50;;;;;;;;;;;;;;;16.16;65.47;98573.09;5054701;28;19970;-51
2022/09/12 01:31:36;;;;;;;;;;;;;;;15.91;65.92;98570.00;5072569;28;19920;-51
2022/09/12 01:34:12;;;;;;;;;;;;;;;15.74;66.99;98567.31;5054404;28;20032;-51
2022/09/12 01:36:49;;;;;;;;;;;;;;;15.71;67.26;98567.75;5054943;28;19917;-51
2022/09/12 01:39:18;;;;;;;;;;;;;;;15.71;67.47;98568.53;5054534;28;19921;-51
2022/09/12 01:41:58;;;;;;;;;;;;;;;15.61;67.89;98559.63;5054483;28;19924;-51
2022/09/12 01:44:30;;;;;;;;;;;;;;;15.51;68.45;98558.41;5072461;28;20382;-51
2022/09/12 01:47:07;;;;;;;;;;;;;;;15.45;68.52;98553.22;5072413;28;19920;-51
2022/09/12 01:49:38;;;;;;;;;;;;;;;15.43;68.70;98568.53;5072367;28;19916;-51
2022/09/12 01:52:11;;;;;;;;;;;;;;;15.56;68.18;98557.69;5072367;28;19917;-51
2022/09/12 01:54:43;;;;;;;;;;;;;;;15.51;69.78;98554.94;5072621;28;20040;-52
2022/09/12 01:57:15;;;;;;;;;;;;;;;15.27;70.68;98565.59;5072254;28;19956;-52
2022/09/12 01:59:44;;;;;;;;;;;;;;;14.95;72.78;98557.25;5072145;28;20379;-51
2022/09/12 02:02:15;;;;;;;;;;;;;;;14.64;74.08;98561.06;5054200;28;19917;-51
2022/09/12 02:04:50;;;;;;;;;;;;;;;14.39;75.38;98552.28;5072226;28;19924;-51
2022/09/12 02:07:18;;;;;;;;;;;;;;;14.24;76.22;98551.91;5072174;28;19924;-51
2022/09/12 02:09:56;;;;;;;;;;;;;;;14.16;76.26;98546.97;5054130;28;19924;-51
2022/09/12 02:12:28;;;;;;;;;;;;;;;14.10;76.75;98551.31;5072146;28;19923;-49
2022/09/12 02:14:59;;;;;;;;;;;;;;;14.09;77.00;98548.91;5054335;28;19990;-51
2022/09/12 02:17:25;;;;;;;;;;;;;;;14.12;77.20;98543.97;5054127;28;19921;-52
2022/09/12 02:19:55;;;;;;;;;;;;;;;14.13;77.03;98545.59;5071976;28;19966;-51
2022/09/12 02:22:24;;;;;;;;;;;;;;;14.19;76.86;98542.03;5072025;28;19916;-50
2022/09/12 02:24:51;;;;;;;;;;;;;;;14.21;76.84;98538.38;5071951;28;20360;-51
2022/09/12 02:27:24;;;;;;;;;;;;;;;14.25;76.77;98544.81;5072031;28;19920;-51
2022/09/12 02:29:50;;;;;;;;;;;;;;;14.29;76.88;98532.78;5054245;28;19921;-51
2022/09/12 02:32:16;;;;;;;;;;;;;;;14.28;76.62;98539.06;5053960;28;19924;-52
2022/09/12 02:34:54;;;;;;;;;;;;;;;14.27;76.49;98550.69;5053916;28;19917;-51
2022/09/12 02:37:19;;;;;;;;;;;;;;;14.38;77.05;98544.59;5071883;28;19917;-51
2022/09/12 02:39:45;;;;;;;;;;;;;;;14.51;76.78;98540.94;5071764;28;19920;-51
2022/09/12 02:42:12;;;;;;;;;;;;;;;14.51;76.40;98533.03;5071814;28;19923;-50
2022/09/12 02:44:38;;;;;;;;;;;;;;;14.49;75.82;98535.09;5071813;28;19956;-51
2022/09/12 02:47:14;;;;;;;;;;;;;;;14.46;75.76;98538.19;5075471;28;19970;-51
2022/09/12 02:49:39;;;;;;;;;;;;;;;14.39;75.86;98538.28;5057726;28;19927;-51
2022/09/12 02:52:05;;;;;;;;;;;;;;;14.41;76.27;98538.03;5075613;28;19920;-52
2022/09/12 02:54:31;;;;;;;;;;;;;;;14.56;76.42;98535.78;5075571;28;19920;-51
2022/09/12 02:56:56;;;;;;;;;;;;;;;14.78;76.88;98536.81;5075518;28;19951;-51
2022/09/12 02:59:23;;;;;;;;;;;;;;;15.19;77.14;98539.50;5075400;28;19916;-51
2022/09/12 03:01:57;;;;;;;;;;;;;;;15.72;76.60;98542.91;5075411;28;19923;-51
2022/09/12 03:04:37;;;;;;;;;;;;;;;16.14;75.83;98532.81;5075470;28;19923;-51
2022/09/12 03:07:29;;;;;;;;;;;;;;;16.27;74.19;98534.31;5075357;28;19921;-52
2022/09/12 03:10:16;;;;;;;;;;;;;;;15.96;73.53;98539.13;5051947;28;19920;-51
2022/09/12 03:12:45;;;;;;;;;;;;;;;15.67;73.29;98532.22;5057315;28;20398;-52
2022/09/12 03:15:32;;;;;;;;;;;;;;;15.47;73.42;98536.09;5075213;28;19916;-51
2022/09/12 03:18:08;;;;;;;;;;;;;;;15.31;73.73;98539.47;5057174;28;19924;-52
2022/09/12 03:20:33;;;;;;;;;;;;;;;15.33;73.75;98537.41;5075047;28;19924;-51
2022/09/12 03:23:05;;;;;;;;;;;;;;;15.38;73.90;98533.03;5075146;28;19917;-51
2022/09/12 03:25:30;;;;;;;;;;;;;;;15.62;73.87;98527.66;5074752;28;19920;-51
2022/09/12 03:27:56;;;;;;;;;;;;;;;15.66;72.73;98531.44;5057011;28;20394;-51
2022/09/12 03:30:21;;;;;;;;;;;;;;;15.54;72.24;98538.59;5074883;28;19939;-51
2022/09/12 03:32:51;;;;;;;;;;;;;;;15.36;72.40;98532.44;5074889;28;20337;-51
2022/09/12 03:35:19;;;;;;;;;;;;;;;15.45;73.01;98540.00;5074833;28;19920;-51
2022/09/12 03:37:45;;;;;;;;;;;;;;;15.53;72.59;98542.28;5074808;28;19916;-52
2022/09/12 03:40:11;;;;;;;;;;;;;;;15.41;71.88;98546.81;5056605;28;19924;-51
2022/09/12 03:42:37;;;;;;;;;;;;;;;15.26;72.01;98532.25;5074737;28;20405;-50
2022/09/12 03:45:03;;;;;;;;;;;;;;;15.12;71.89;98536.19;5056653;28;19916;-49
2022/09/12 03:47:29;;;;;;;;;;;;;;;15.02;72.13;98536.00;5056641;28;20011;-49
2022/09/12 03:49:54;;;;;;;;;;;;;;;15.03;72.70;98538.41;5074496;28;20061;-49
2022/09/12 03:52:20;;;;;;;;;;;;;;;15.20;72.10;98530.56;5056546;28;19916;-48
2022/09/12 03:54:45;;;;;;;;;;;;;;;15.23;71.81;98534.56;5056508;28;20039;-49
2022/09/12 03:57:11;;;;;;;;;;;;;;;15.32;70.91;98536.59;5074346;28;19925;-49
2022/09/12 03:59:36;;;;;;;;;;;;;;;15.24;70.38;98539.63;5056374;28;19917;-49
2022/09/12 04:02:02;;;;;;;;;;;;;;;15.10;70.62;98538.28;5074365;28;19923;-51
2022/09/12 04:04:27;;;;;;;;;;;;;;;15.17;71.67;98539.75;5074309;28;19916;-51
2022/09/12 04:06:53;;;;;;;;;;;;;;;15.43;71.96;98542.09;5074239;28;19923;-51
2022/09/12 04:09:18;;;;;;;;;;;;;;;15.64;71.42;98538.78;5056202;28;19924;-51
2022/09/12 04:11:43;;;;;;;;;;;;;;;15.54;70.68;98536.75;5074143;28;19916;-51
2022/09/12 04:14:09;;;;;;;;;;;;;;;15.42;70.54;98543.13;5074095;28;20371;-51
2022/09/12 04:16:34;;;;;;;;;;;;;;;15.25;70.30;98541.25;5056061;28;19924;-51
2022/09/12 04:19:00;;;;;;;;;;;;;;;15.15;71.01;98535.72;5056078;28;19920;-51
2022/09/12 04:21:25;;;;;;;;;;;;;;;15.06;70.75;98545.06;5073978;28;20003;-51
2022/09/12 04:23:52;;;;;;;;;;;;;;;14.95;71.12;98544.84;5073933;28;19923;-49
2022/09/12 04:26:18;;;;;;;;;;;;;;;14.92;71.43;98541.88;5052402;28;19972;-50
2022/09/12 04:28:45;;;;;;;;;;;;;;;14.99;71.89;98542.56;5053916;28;19916;-49
2022/09/12 04:31:16;;;;;;;;;;;;;;;15.04;71.82;98545.28;5053751;28;19948;-49
2022/09/12 04:33:42;;;;;;;;;;;;;;;15.17;70.69;98539.75;5052461;28;19917;-49
2022/09/12 04:36:09;;;;;;;;;;;;;;;15.23;70.76;98545.13;5053716;28;20310;-49
2022/09/12 04:38:35;;;;;;;;;;;;;;;15.24;70.70;98542.25;5053553;28;19921;-49
2022/09/12 04:41:00;;;;;;;;;;;;;;;15.22;70.41;98546.97;5052307;28;19924;-49
2022/09/12 04:43:25;;;;;;;;;;;;;;;15.14;70.45;98544.69;5053576;28;19917;-48
2022/09/12 04:45:51;;;;;;;;;;;;;;;15.05;70.18;98538.16;5053506;28;19956;-49
2022/09/12 04:48:16;;;;;;;;;;;;;;;14.91;70.31;98546.34;5052168;28;19921;-49
2022/09/12 04:50:42;;;;;;;;;;;;;;;14.80;70.78;98541.88;5053445;28;19917;-50
2022/09/12 04:53:07;;;;;;;;;;;;;;;14.74;71.39;98540.94;5053450;28;19917;-49
2022/09/12 04:55:35;;;;;;;;;;;;;;;14.71;71.06;98545.91;5051997;28;19916;-50
2022/09/12 04:58:02;;;;;;;;;;;;;;;14.61;71.20;98540.38;5051999;28;19916;-50
2022/09/12 05:00:27;;;;;;;;;;;;;;;14.59;71.28;98532.72;5053103;28;19921;-51
2022/09/12 05:02:53;;;;;;;;;;;;;;;14.65;71.13;98526.50;5053111;28;20345;-51
2022/09/12 05:05:18;;;;;;;;;;;;;;;14.69;70.95;98517.09;5051782;28;19917;-51
2022/09/12 05:07:44;;;;;;;;;;;;;;;14.70;70.83;98517.88;5051334;28;19971;-51
2022/09/12 05:10:10;;;;;;;;;;;;;;;14.65;70.83;98515.94;5051753;28;19920;-51
2022/09/12 05:12:36;;;;;;;;;;;;;;;14.68;71.03;98518.09;5053034;28;19916;-51
2022/09/12 05:15:05;;;;;;;;;;;;;;;14.87;71.00;98510.88;5052973;28;20015;-50
2022/09/12 05:17:30;;;;;;;;;;;;;;;15.12;70.08;98515.06;5051618;28;20386;-51
2022/09/12 05:19:56;;;;;;;;;;;;;;;15.17;69.82;98513.31;5052843;28;19924;-50
2022/09/12 05:22:22;;;;;;;;;;;;;;;15.15;69.35;98506.66;5053014;28;19920;-49
2022/09/12 05:24:47;;;;;;;;;;;;;;;15.03;69.05;98500.59;5052811;28;19917;-49
2022/09/12 05:27:14;;;;;;;;;;;;;;;14.92;69.17;98503.03;5051345;28;19928;-50
2022/09/12 05:29:39;;;;;;;;;;;;;;;15.13;69.12;98506.91;5052680;28;19920;-49
2022/09/12 05:32:05;;;;;;;;;;;;;;;15.60;67.80;98505.91;5052632;28;20174;-48
2022/09/12 05:34:30;;;;;;;;;;;;;;;16.12;66.37;98497.03;5051332;28;19917;-49
2022/09/12 05:36:59;;;;;;;;;;;;;;;16.72;64.63;98496.31;5052583;28;19917;-49
2022/09/12 05:39:24;;;;;;;;;;;;;;;17.31;62.31;98500.22;5051169;28;19917;-49
2022/09/12 05:41:50;;;;;;;;;;;;;;;17.77;60.88;98508.66;5052503;28;19917;-49
2022/09/12 05:44:15;;;;;;;;;;;;;;;18.42;59.87;98506.00;5051160;28;19928;-50
2022/09/12 05:46:42;;;;;;;;;;;;;;;18.92;57.25;98505.53;5052343;28;19924;-51
2022/09/12 05:49:10;;;;;;;;;;;;;;;19.11;55.83;98503.19;5052383;28;19917;-49
2022/09/12 05:51:38;;;;;;;;;;;;;;;19.46;55.28;98508.91;5052248;28;19944;-48
2022/09/12 05:54:05;;;;;;;;;;;;;;;20.17;55.29;98510.06;5052600;28;20002;-49
2022/09/12 05:56:32;;;;;;;;;;;;;;;21.04;54.29;98509.91;5052221;28;19920;-49
2022/09/12 05:59:10;;;;;;;;;;;;;;;22.16;52.82;98513.78;5052200;28;19943;-48
2022/09/12 06:01:36;;;;;;;;;;;;;;;23.32;50.68;98523.56;5052199;28;19964;-48
2022/09/12 06:04:03;;;;;;;;;;;;;;;24.08;48.35;98518.19;5052242;28;19967;-47
2022/09/12 06:06:30;;;;;;;;;;;;;;;24.54;47.44;98518.53;5052134;28;19921;-48
2022/09/12 06:08:57;;;;;;;;;;;;;;;24.82;46.96;98517.44;5052424;28;20311;-47
2022/09/12 06:11:24;;;;;;;;;;;;;;;24.99;46.38;98522.22;5052070;28;19917;-48
2022/09/12 06:13:50;;;;;;;;;;;;;;;25.10;45.84;98528.19;5052372;28;19978;-50
2022/09/12 06:16:19;;;;;;;;;;;;;;;25.08;46.24;98533.06;5052052;28;20450;-47
2022/09/12 06:18:50;;;;;;;;;;;;;;;24.85;45.39;98524.91;5051977;28;20482;-47
2022/09/12 06:21:19;;;;;;;;;;;;;;;24.55;47.26;98539.69;5054653;28;19952;-48
2022/09/12 06:23:45;;;;;;;;;;;;;;;24.56;47.18;98535.13;5054916;28;20027;-48
2022/09/12 06:26:11;;;;;;;;;;;;;;;24.87;46.19;98538.84;5066949;28;20387;-48
2022/09/12 06:28:38;;;;;;;;;;;;;;;25.38;45.40;98534.34;5076135;28;19917;-48
2022/09/12 06:31:05;;;;;;;;;;;;;;;25.85;44.67;98542.16;5076102;28;19939;-49
2022/09/12 06:33:32;;;;;;;;;;;;;;;26.26;44.85;98542.03;5076027;28;19939;-47
2022/09/12 06:36:05;;;;;;;;;;;;;;;26.69;43.77;98536.09;5075990;28;20302;-47
2022/09/12 06:38:31;;;;;;;;;;;;;;;27.40;41.95;98543.28;5075900;28;20301;-50
2022/09/12 06:40:57;;;;;;;;;;;;;;;28.20;39.73;98543.00;5057889;28;19917;-50
2022/09/12 06:43:22;;;;;;;;;;;;;;;28.99;37.28;98537.34;5075799;28;19924;-48
2022/09/12 06:45:48;;;;;;;;;;;;;;;29.61;36.48;98528.53;5076080;28;19917;-50
2022/09/12 06:48:14;;;;;;;;;;;;;;;29.72;35.83;98520.84;5057719;28;19916;-47
2022/09/12 06:50:40;;;;;;;;;;;;;;;29.95;35.72;98529.41;5075681;28;19966;-48
2022/09/12 06:53:08;;;;;;;;;;;;;;;30.13;34.55;98524.59;5075722;28;19924;-48
2022/09/12 06:55:34;;;;;;;;;;;;;;;29.86;33.13;98529.47;5075560;28;20007;-47
2022/09/12 06:57:59;;;;;;;;;;;;;;;29.56;34.13;98517.94;5057589;28;19960;-48
2022/09/12 07:00:24;;;;;;;;;;;;;;;29.77;33.88;98512.53;5075483;28;19927;-48
2022/09/12 07:02:55;;;;;;;;;;;;;;;29.96;33.59;98516.66;5075497;28;19917;-49
2022/09/12 07:05:21;;;;;;;;;;;;;;;30.07;32.98;98510.47;5075397;28;20003;-49
2022/09/12 07:07:46;;;;;;;;;;;;;;;30.49;33.14;98511.53;5075389;28;20011;-50
2022/09/12 07:10:11;;;;;;;;;;;;;;;30.82;32.07;98514.13;5075317;28;20015;-49
2022/09/12 07:12:37;;;;;;;;;;;;;;;30.78;31.23;98503.16;5075506;28;19916;-49
2022/09/12 07:15:02;;;;;;;;;;;;;;;30.64;30.98;98502.72;5075174;28;20343;-48
2022/09/12 07:17:28;;;;;;;;;;;;;;;30.34;30.80;98505.59;5075209;28;19954;-49
2022/09/12 07:19:53;;;;;;;;;;;;;;;30.28;31.53;98501.50;5075315;28;19916;-49
2022/09/12 07:22:19;;;;;;;;;;;;;;;31.09;31.24;98512.69;5075079;28;19923;-50
2022/09/12 07:24:44;;;;;;;;;;;;;;;31.89;29.89;98504.88;5075090;28;19948;-48
2022/09/12 07:27:10;;;;;;;;;;;;;;;32.57;29.72;98509.41;5074746;28;19920;-48
2022/09/12 07:29:36;;;;;;;;;;;;;;;33.27;29.07;98508.69;5075045;28;20400;-50
2022/09/12 07:32:02;;;;;;;;;;;;;;;33.37;26.43;98510.06;5056480;28;20003;-50
2022/09/12 07:34:27;;;;;;;;;;;;;;;32.53;27.78;98501.13;5056817;28;20023;-50
2022/09/12 07:36:55;;;;;;;;;;;;;;;32.72;28.28;98508.59;5056911;28;19964;-49
2022/09/12 07:39:21;;;;;;;;;;;;;;;33.59;28.05;98506.63;5074698;28;19923;-51
2022/09/12 07:41:47;;;;;;;;;;;;;;;34.08;26.76;98505.25;5056774;28;20015;-50
2022/09/12 07:44:12;;;;;;;;;;;;;;;34.18;26.44;98499.22;5074695;28;19922;-50
2022/09/12 07:46:38;;;;;;;;;;;;;;;34.64;26.47;98489.47;5074717;28;19966;-50
2022/09/12 07:49:04;;;;;;;;;;;;;;;34.84;25.10;98493.69;5074601;28;19931;-48
2022/09/12 07:51:30;;;;;;;;;;;;;;;34.66;25.98;98496.16;5074570;28;20003;-50
2022/09/12 07:53:56;;;;;;;;;;;;;;;34.64;24.96;98497.66;5074486;28;20003;-50
2022/09/12 07:56:22;;;;;;;;;;;;;;;34.75;25.59;98506.78;5074448;28;19916;-50
2022/09/12 07:58:48;;;;;;;;;;;;;;;35.49;24.94;98506.28;5074378;28;19943;-50
2022/09/12 08:01:22;;;;;;;;;;;;;;;35.52;24.22;98500.09;5056428;28;20011;-49
2022/09/12 08:03:48;;;;;;;;;;;;;;;36.03;23.99;98503.41;5074372;28;20302;-50
2022/09/12 08:06:15;;;;;;;;;;;;;;;37.09;23.38;98502.72;5074328;28;19923;-50
2022/09/12 08:08:42;;;;;;;;;;;;;;;37.80;22.00;98497.97;5074333;28;20298;-50
2022/09/12 08:11:09;;;;;;;;;;;;;;;37.98;21.40;98496.03;5074210;28;19924;-50
2022/09/12 08:13:35;;;;;;;;;;;;;;;38.29;21.18;98497.25;5056206;28;19924;-50
2022/09/12 08:16:04;;;;;;;;;;;;;;;38.52;21.01;98502.38;5074048;28;19924;-49
2022/09/12 08:18:31;;;;;;;;;;;;;;;38.20;21.09;98507.06;5074053;28;19923;-51
2022/09/12 08:21:01;;;;;;;;;;;;;;;38.51;20.90;98509.03;5074002;28;19923;-49
2022/09/12 08:23:28;;;;;;;;;;;;;;;38.26;20.54;98506.28;5073967;28;19916;-49
2022/09/12 08:26:01;;;;;;;;;;;;;;;37.52;20.58;98507.63;5073694;28;19924;-48
2022/09/12 08:28:28;;;;;;;;;;;;;;;36.95;21.15;98513.56;5074151;28;19917;-51
2022/09/12 08:30:53;;;;;;;;;;;;;;;37.46;21.29;98503.69;5073835;28;20014;-50
2022/09/12 08:33:19;;;;;;;;;;;;;;;37.44;20.93;98515.00;5073744;28;20299;-50
2022/09/12 08:35:47;;;;;;;;;;;;;;;37.30;20.56;98509.47;5055725;28;19943;-50
2022/09/12 08:38:12;;;;;;;;;;;;;;;36.30;23.70;98509.53;5073671;28;19917;-48
2022/09/12 08:40:46;;;;;;;;;;;;;;;35.25;25.35;98507.53;5073562;28;19943;-49
2022/09/12 08:43:30;;;;;;;;;;;;;;;35.92;25.47;98506.81;5072840;28;20306;-48
2022/09/12 08:46:24;;;;;;;;;;;;;;;36.06;25.21;98508.91;5073523;28;19970;-49
2022/09/12 08:48:50;;;;;;;;;;;;;;;36.17;24.66;98515.25;5060102;28;19923;-49
2022/09/12 08:51:18;;;;;;;;;;;;;;;36.26;24.05;98514.97;5073398;28;19917;-50
2022/09/12 08:53:46;;;;;;;;;;;;;;;37.06;23.62;98513.63;5073412;28;19916;-50
2022/09/12 08:56:18;;;;;;;;;;;;;;;38.06;22.53;98514.09;5073312;28;19916;-50
2022/09/12 08:58:45;;;;;;;;;;;;;;;38.79;21.65;98507.44;5073187;28;19938;-50
2022/09/12 09:01:13;;;;;;;;;;;;;;;38.89;21.75;98506.66;5073198;28;19970;-50
2022/09/12 09:03:45;;;;;;;;;;;;;;;38.91;21.64;98500.78;5073212;28;19920;-49
2022/09/12 09:06:25;;;;;;;;;;;;;;;39.28;20.77;98502.25;5073115;28;19924;-49
2022/09/12 09:09:03;;;;;;;;;;;;;;;39.65;20.85;98503.69;5073067;28;19916;-49
2022/09/12 09:11:47;;;;;;;;;;;;;;;39.80;20.93;98496.91;5055100;28;19916;-49
2022/09/12 09:14:46;;;;;;;;;;;;;;;39.92;20.39;98498.44;5072999;28;19916;-49
2022/09/12 09:17:17;;;;;;;;;;;;;;;39.85;20.51;98493.00;5072938;28;20382;-50
2022/09/12 09:19:55;;;;;;;;;;;;;;;39.50;21.61;98494.72;5072891;28;20003;-50
2022/09/12 09:22:44;;;;;;;;;;;;;;;38.21;23.48;98492.16;5072886;28;19924;-51
2022/09/12 09:25:16;;;;;;;;;;;;;;;38.40;22.32;98496.50;5046334;28;19921;-49
2022/09/12 09:27:46;;;;;;;;;;;;;;;38.94;21.66;98494.50;5072750;28;19964;-50
2022/09/12 09:30:20;;;;;;;;;;;;;;;38.75;20.23;98490.22;5072721;28;19982;-50
2022/09/12 09:32:53;;;;;;;;;;;;;;;37.97;20.78;98492.53;5071923;28;20209;-50
2022/09/12 09:35:27;;;;;;;;;;;;;;;38.40;19.64;98494.53;5072613;28;19917;-50
2022/09/12 09:38:13;;;;;;;;;;;;;;;39.30;19.15;98495.19;5054790;28;19917;-50
2022/09/12 09:40:45;;;;;;;;;;;;;;;39.50;18.56;98490.03;5071866;28;19921;-51
2022/09/12 09:43:21;;;;;;;;;;;;;;;39.39;18.71;98485.75;5072536;28;19969;-50
2022/09/12 09:45:48;;;;;;;;;;;;;;;39.10;18.57;98491.31;5072448;28;19916;-51
2022/09/12 09:48:18;;;;;;;;;;;;;;;38.45;19.31;98488.63;5054518;28;19968;-50
2022/09/12 09:50:45;;;;;;;;;;;;;;;38.50;19.09;98490.22;5072395;28;19922;-50
2022/09/12 09:53:33;;;;;;;;;;;;;;;39.35;18.77;98485.75;5072376;28;19917;-49
2022/09/12 09:56:01;;;;;;;;;;;;;;;40.20;18.77;98477.44;5054238;28;19993;-49
2022/09/12 09:58:36;;;;;;;;;;;;;;;41.32;17.81;98478.75;5072238;28;19917;-50
2022/09/12 10:01:04;;;;;;;;;;;;;;;42.43;17.24;98476.34;5054213;28;19928;-49
2022/09/12 10:03:30;;;;;;;;;;;;;;;42.95;16.22;98471.53;5072211;28;20398;-49
2022/09/12 10:05:59;;;;;;;;;;;;;;;43.38;16.18;98467.91;5072226;28;19971;-48
2022/09/12 10:08:29;;;;;;;;;;;;;;;43.76;16.26;98467.50;5072185;28;19990;-50
2022/09/12 10:10:57;;;;;;;;;;;;;;;44.17;15.75;98461.41;5054106;28;19927;-50
2022/09/12 10:13:26;;;;;;;;;;;;;;;44.69;15.44;98470.75;5072093;28;19916;-49
2022/09/12 10:15:56;;;;;;;;;;;;;;;45.04;15.44;98465.47;5054110;28;19979;-52
2022/09/12 10:18:32;;;;;;;;;;;;;;;45.59;15.17;98465.47;5072283;28;20007;-53
2022/09/12 10:20:57;;;;;;;;;;;;;;;45.53;14.46;98459.69;5054157;28;19917;-52
2022/09/12 10:23:34;;;;;;;;;;;;;;;45.62;14.51;98451.50;5054093;28;19946;-52
2022/09/12 10:26:03;;;;;;;;;;;;;;;45.51;13.97;98453.03;5071807;28;19924;-52
2022/09/12 10:28:34;;;;;;;;;;;;;;;45.32;14.31;98443.69;5072023;28;19920;-52
2022/09/12 10:31:01;;;;;;;;;;;;;;;44.77;14.14;98438.09;5072003;28;19917;-52
2022/09/12 10:33:27;;;;;;;;;;;;;;;44.19;14.24;98444.34;5071899;28;19923;-53
2022/09/12 10:35:53;;;;;;;;;;;;;;;43.89;14.73;98446.25;5053891;28;19920;-52
2022/09/12 10:38:24;;;;;;;;;;;;;;;43.83;14.48;98446.00;5071900;28;20387;-52
2022/09/12 10:40:58;;;;;;;;;;;;;;;42.89;14.88;98452.69;5071809;28;20468;-52
2022/09/12 10:43:33;;;;;;;;;;;;;;;42.18;15.33;98448.41;5072164;28;19959;-51
2022/09/12 10:46:19;;;;;;;;;;;;;;;41.34;15.67;98452.78;5071860;28;19921;-52
2022/09/12 10:48:48;;;;;;;;;;;;;;;40.24;16.35;98448.72;5071443;28;19916;-52
2022/09/12 10:51:23;;;;;;;;;;;;;;;39.98;16.92;98443.84;5071812;28;19923;-51
2022/09/12 10:53:50;;;;;;;;;;;;;;;39.91;17.13;98450.97;5071817;28;19970;-51
2022/09/12 10:56:21;;;;;;;;;;;;;;;39.90;17.11;98454.09;5071641;28;20424;-51
2022/09/12 10:59:05;;;;;;;;;;;;;;;39.44;17.55;98453.19;5053699;28;19917;-52
2022/09/12 11:01:47;;;;;;;;;;;;;;;39.02;17.88;98454.91;5071723;28;20010;-51
2022/09/12 11:04:20;;;;;;;;;;;;;;;38.61;17.84;98449.88;5071674;28;20386;-51
2022/09/12 11:06:55;;;;;;;;;;;;;;;38.36;18.54;98456.16;5055244;28;19920;-51
2022/09/12 11:09:38;;;;;;;;;;;;;;;38.45;18.80;98453.00;5057445;28;19916;-51
2022/09/12 11:12:04;;;;;;;;;;;;;;;38.56;19.10;98445.56;5075278;28;19917;-52
2022/09/12 11:14:35;;;;;;;;;;;;;;;39.29;18.54;98444.19;5075302;28;19916;-52
2022/09/12 11:17:19;;;;;;;;;;;;;;;39.32;17.96;98439.88;5075231;28;19920;-51
2022/09/12 11:20:07;;;;;;;;;;;;;;;39.10;18.03;98448.22;5075058;28;19928;-52
2022/09/12 11:22:35;;;;;;;;;;;;;;;39.16;17.59;98448.59;5075462;28;19966;-52
2022/09/12 11:25:04;;;;;;;;;;;;;;;39.02;18.25;98438.44;5074852;28;19916;-52
2022/09/12 11:27:32;;;;;;;;;;;;;;;39.02;17.82;98437.63;5075098;28;19939;-52
2022/09/12 11:30:00;;;;;;;;;;;;;;;39.24;18.21;98438.34;5074994;28;19917;-52
2022/09/12 11:32:41;;;;;;;;;;;;;;;39.43;18.05;98432.41;5074913;28;20425;-51
2022/09/12 11:35:26;;;;;;;;;;;;;;;39.57;17.94;98436.25;5074826;28;19921;-51
2022/09/12 11:38:09;;;;;;;;;;;;;;;39.45;17.11;98441.00;5074350;28;20380;-51
2022/09/12 11:40:40;;;;;;;;;;;;;;;38.83;17.53;98427.88;5074712;28;19920;-52
2022/09/12 11:43:29;;;;;;;;;;;;;;;38.64;18.04;98432.63;5074723;28;19921;-53
2022/09/12 11:45:58;;;;;;;;;;;;;;;38.85;17.75;98429.03;5056782;28;20336;-51
2022/09/12 11:48:33;;;;;;;;;;;;;;;38.42;18.09;98436.56;5074713;28;19917;-52
2022/09/12 11:51:01;;;;;;;;;;;;;;;37.87;18.03;98427.53;5074873;28;19924;-50
2022/09/12 11:53:32;;;;;;;;;;;;;;;37.45;18.63;98420.78;5056660;28;19924;-49
2022/09/12 11:56:05;;;;;;;;;;;;;;;37.55;19.34;98422.75;5074711;28;19982;-48
2022/09/12 11:58:30;;;;;;;;;;;;;;;38.09;18.78;98425.63;5074522;28;20302;-49
2022/09/12 12:01:10;;;;;;;;;;;;;;;38.58;18.61;98428.72;5074325;28;19917;-50
2022/09/12 12:03:39;;;;;;;;;;;;;;;38.54;18.44;98417.00;5056488;28;19920;-51
2022/09/12 12:06:10;;;;;;;;;;;;;;;38.27;17.96;98411.88;5074294;28;19923;-50
2022/09/12 12:08:42;;;;;;;;;;;;;;;37.26;19.00;98410.94;5056328;28;19928;-50
2022/09/12 12:11:08;;;;;;;;;;;;;;;36.02;19.81;98417.13;5074428;28;19917;-50
2022/09/12 12:13:34;;;;;;;;;;;;;;;34.85;20.70;98405.28;5074208;28;20309;-49
2022/09/12 12:16:22;;;;;;;;;;;;;;;33.78;21.38;98398.91;5056107;28;19916;-50
2022/09/12 12:18:59;;;;;;;;;;;;;;;33.37;22.44;98401.25;5063053;28;19920;-50
2022/09/12 12:21:28;;;;;;;;;;;;;;;33.69;22.36;98380.09;5073987;28;20399;-50
2022/09/12 12:24:03;;;;;;;;;;;;;;;34.50;21.89;98387.25;5073993;28;19916;-50
2022/09/12 12:26:38;;;;;;;;;;;;;;;35.39;21.18;98390.38;5073722;28;19920;-50
2022/09/12 12:29:24;;;;;;;;;;;;;;;36.22;20.68;98388.44;5073932;28;19916;-49
2022/09/12 12:31:58;;;;;;;;;;;;;;;36.94;20.05;98386.94;5062994;28;19920;-48
2022/09/12 12:34:31;;;;;;;;;;;;;;;37.48;19.00;98381.66;5073734;28;19956;-49
2022/09/12 12:36:58;;;;;;;;;;;;;;;37.83;18.95;98384.84;5073693;28;19917;-51
2022/09/12 12:39:44;;;;;;;;;;;;;;;37.92;18.36;98374.31;5073658;28;19916;-49
2022/09/12 12:42:30;;;;;;;;;;;;;;;37.84;19.13;98370.78;5045397;28;19924;-50
2022/09/12 12:44:55;;;;;;;;;;;;;;;38.04;18.95;98373.13;5055419;28;20417;-50
2022/09/12 12:47:26;;;;;;;;;;;;;;;37.74;18.49;98368.81;5055638;28;19916;-47
2022/09/12 12:49:56;;;;;;;;;;;;;;;37.68;19.04;98362.94;5073384;28;19917;-49
2022/09/12 12:52:23;;;;;;;;;;;;;;;37.50;18.95;98371.09;5073348;28;19917;-50
2022/09/12 12:54:51;;;;;;;;;;;;;;;37.34;18.96;98371.44;5073353;28;19999;-49
2022/09/12 12:57:37;;;;;;;;;;;;;;;37.51;19.08;98363.66;5073278;28;19921;-49
2022/09/12 13:00:05;;;;;;;;;;;;;;;37.36;18.85;98357.38;5054902;28;19924;-51
2022/09/12 13:02:31;;;;;;;;;;;;;;;37.23;18.70;98361.66;5055221;28;19920;-49